Time;durP1;ratioP1;P1;durP2;ratioP2;P2;SDS_P1;SDS_P2;PMS_P1;PMS_P2;Temp;Humidity;BMP_temperature;BMP_pressure;BME280_temperature;BME280_humidity;BME280_pressure;Samples;Min_cycle;Max_cycle;Signal;HPM_P1;HPM_P2
2023/03/24 00:01:19;;;;;;;2.80;1.48;;;18.80;68.00;;;;;;5093604;28;20036;-72
2023/03/24 00:03:47;;;;;;;4.40;1.63;;;18.80;59.70;;;;;;5093779;28;20020;-72
2023/03/24 00:06:14;;;;;;;2.03;1.45;;;18.70;59.70;;;;;;5093720;28;20027;-72
2023/03/24 00:08:42;;;;;;;2.30;1.15;;;18.80;59.70;;;;;;5093675;28;20028;-72
2023/03/24 00:11:10;;;;;;;2.10;1.10;;;18.80;59.80;;;;;;5092512;28;20096;-73
2023/03/24 00:13:37;;;;;;;3.22;1.10;;;18.80;59.80;;;;;;5093328;28;20036;-72
2023/03/24 00:16:04;;;;;;;3.42;1.23;;;18.70;59.80;;;;;;5093207;28;20184;-72
2023/03/24 00:18:30;;;;;;;2.28;1.05;;;18.70;59.80;;;;;;5093264;28;20035;-72
2023/03/24 00:20:57;;;;;;;3.22;1.55;;;18.80;59.80;;;;;;5093272;28;20024;-73
2023/03/24 00:23:24;;;;;;;3.28;1.27;;;18.80;59.80;;;;;;5093186;28;20024;-72
2023/03/24 00:26:18;;;;;;;2.65;1.52;;;18.70;59.70;;;;;;5092613;28;20062;-72
2023/03/24 00:28:47;;;;;;;1.73;1.17;;;18.70;59.80;;;;;;5092438;28;20086;-72
2023/03/24 00:31:13;;;;;;;2.00;1.40;;;18.70;59.80;;;;;;5092744;28;20501;-72
2023/03/24 00:33:41;;;;;;;2.03;1.25;;;18.80;59.80;;;;;;5092910;28;20028;-72
2023/03/24 00:36:11;;;;;;;2.10;1.17;;;18.70;59.90;;;;;;5092872;28;20032;-72
2023/03/24 00:38:39;;;;;;;3.00;1.45;;;18.80;59.90;;;;;;5093042;28;20486;-72
2023/03/24 00:41:06;;;;;;;2.28;1.35;;;18.70;59.90;;;;;;5092322;28;20041;-72
2023/03/24 00:43:33;;;;;;;2.22;0.98;;;18.70;60.00;;;;;;5092835;28;20016;-72
2023/03/24 00:46:00;;;;;;;1.67;1.08;;;18.70;60.00;;;;;;5092774;28;20024;-72
2023/03/24 00:48:28;;;;;;;4.00;1.67;;;18.70;60.00;;;;;;5092677;28;20031;-72
2023/03/24 00:50:53;;;;;;;3.10;1.38;;;18.70;59.90;;;;;;5092660;28;20020;-72
2023/03/24 00:53:22;;;;;;;2.47;1.10;;;18.70;60.00;;;;;;5092604;28;20054;-72
2023/03/24 00:55:48;;;;;;;1.80;1.10;;;18.70;59.90;;;;;;5092591;28;20074;-72
2023/03/24 00:58:18;;;;;;;2.25;1.33;;;18.70;60.00;;;;;;5092952;28;20048;-76
2023/03/24 01:00:46;;;;;;;2.80;1.25;;;18.70;60.10;;;;;;5092833;28;20099;-77
2023/03/24 01:03:12;;;;;;;2.60;1.40;;;18.70;60.10;;;;;;5092669;28;20099;-77
2023/03/24 01:05:40;;;;;;;1.98;1.15;;;18.70;60.10;;;;;;5092493;28;20107;-77
2023/03/24 01:08:07;;;;;;;2.30;1.20;;;18.70;60.10;;;;;;5092810;28;20379;-77
2023/03/24 01:10:41;;;;;;;3.22;1.23;;;18.70;60.00;;;;;;5092389;28;20035;-77
2023/03/24 01:13:08;;;;;;;2.13;1.10;;;18.70;60.10;;;;;;5092575;28;20024;-77
2023/03/24 01:15:35;;;;;;;2.55;1.38;;;18.70;60.00;;;;;;5092416;28;20032;-77
2023/03/24 01:18:01;;;;;;;2.83;1.17;;;18.70;60.20;;;;;;5092408;28;20433;-76
2023/03/24 01:20:32;;;;;;;3.17;1.20;;;18.70;60.10;;;;;;5092275;28;20027;-77
2023/03/24 01:22:59;;;;;;;2.10;1.10;;;18.70;60.10;;;;;;5092406;28;20028;-77
2023/03/24 01:25:26;;;;;;;1.63;1.10;;;18.70;60.20;;;;;;5092115;28;20563;-76
2023/03/24 01:27:52;;;;;;;2.72;1.33;;;18.70;60.30;;;;;;5092255;28;20052;-76
2023/03/24 01:30:21;;;;;;;2.25;1.10;;;18.70;60.20;;;;;;5092226;28;20039;-77
2023/03/24 01:32:51;;;;;;;1.63;1.05;;;18.70;60.30;;;;;;5092583;28;20070;-76
2023/03/24 01:35:19;;;;;;;1.95;1.33;;;18.60;69.00;;;;;;5092019;28;20035;-77
2023/03/24 01:37:45;;;;;;;1.95;1.00;;;18.70;60.50;;;;;;5092152;28;20487;-77
2023/03/24 01:40:21;;;;;;;3.03;1.13;;;18.70;60.40;;;;;;5092537;28;20557;-77
2023/03/24 01:42:48;;;;;;;3.30;1.05;;;18.70;60.30;;;;;;5092436;28;20095;-76
2023/03/24 01:45:38;;;;;;;1.17;0.90;;;18.70;60.40;;;;;;5092461;28;20062;-77
2023/03/24 01:48:25;;;;;;;2.35;1.05;;;18.70;60.50;;;;;;5092211;28;20035;-77
2023/03/24 01:51:17;;;;;;;1.67;0.80;;;18.70;60.40;;;;;;5091993;28;20028;-76
2023/03/24 01:54:16;;;;;;;2.55;1.33;;;18.70;60.50;;;;;;5091918;28;20047;-77
2023/03/24 01:56:47;;;;;;;2.25;1.00;;;18.70;60.40;;;;;;5096009;28;20032;-77
2023/03/24 01:59:17;;;;;;;1.58;0.98;;;18.70;60.60;;;;;;5095950;28;20471;-77
2023/03/24 02:01:44;;;;;;;3.60;1.27;;;18.70;60.70;;;;;;5096248;28;20016;-76
2023/03/24 02:04:11;;;;;;;0.90;0.70;;;18.60;60.60;;;;;;5096126;28;20454;-77
2023/03/24 02:06:39;;;;;;;2.03;1.20;;;18.70;60.60;;;;;;5095778;28;20364;-77
2023/03/24 02:09:07;;;;;;;1.33;0.80;;;18.70;61.40;;;;;;5096166;28;20077;-76
2023/03/24 02:11:35;;;;;;;1.38;1.00;;;18.60;60.60;;;;;;5096023;28;20416;-77
2023/03/24 02:14:03;;;;;;;1.08;0.77;;;18.70;60.60;;;;;;5095732;28;20023;-77
2023/03/24 02:16:42;;;;;;;1.42;0.65;;;18.60;60.60;;;;;;5095617;28;20047;-76
2023/03/24 02:19:38;;;;;;;1.25;0.85;;;18.60;60.50;;;;;;5096042;28;20092;-77
2023/03/24 02:22:04;;;;;;;1.42;0.75;;;18.60;60.40;;;;;;5095555;28;20081;-76
2023/03/24 02:25:02;;;;;;;1.17;0.73;;;18.60;60.40;;;;;;5095407;28;20044;-76
2023/03/24 02:27:57;;;;;;;1.13;0.73;;;18.60;60.30;;;;;;5095613;28;20073;-76
2023/03/24 02:30:45;;;;;;;1.30;0.80;;;18.60;60.20;;;;;;5094244;28;20051;-76
2023/03/24 02:33:16;;;;;;;4.05;0.88;;;18.60;60.20;;;;;;5095349;28;20530;-76
2023/03/24 02:36:01;;;;;;;2.78;1.23;;;18.60;60.10;;;;;;5095346;28;20067;-77
2023/03/24 02:38:33;;;;;;;3.03;1.15;;;18.60;60.00;;;;;;5095218;28;20111;-76
2023/03/24 02:41:08;;;;;;;2.28;0.90;;;18.60;60.00;;;;;;5095520;28;20409;-76
2023/03/24 02:43:47;;;;;;;2.38;0.90;;;18.60;59.90;;;;;;5095095;28;20562;-76
2023/03/24 02:46:40;;;;;;;2.15;0.77;;;18.60;59.80;;;;;;5095138;28;20039;-76
2023/03/24 02:49:28;;;;;;;2.78;0.85;;;18.60;59.80;;;;;;5093725;28;20077;-76
2023/03/24 02:52:00;;;;;;;2.70;0.70;;;18.50;59.70;;;;;;5095285;28;20023;-76
2023/03/24 02:55:01;;;;;;;2.38;0.70;;;18.50;59.60;;;;;;5095123;28;20390;-76
2023/03/24 02:57:46;;;;;;;3.05;0.82;;;18.50;59.50;;;;;;5090181;28;20043;-76
2023/03/24 03:00:29;;;;;;;2.13;0.90;;;18.50;59.60;;;;;;5094816;28;20022;-76
2023/03/24 03:03:05;;;;;;;3.65;0.80;;;18.50;60.00;;;;;;5094231;28;20016;-76
2023/03/24 03:05:37;;;;;;;2.67;0.80;;;18.50;59.30;;;;;;5094741;28;20497;-76
2023/03/24 03:08:06;;;;;;;2.90;0.90;;;18.50;59.30;;;;;;5095045;28;20054;-76
2023/03/24 03:10:42;;;;;;;2.53;0.90;;;18.40;59.20;;;;;;5094657;28;20478;-76
2023/03/24 03:13:23;;;;;;;5.80;0.90;;;18.40;59.20;;;;;;5094634;28;20394;-76
2023/03/24 03:15:54;;;;;;;4.00;1.23;;;18.40;59.20;;;;;;5094479;28;20062;-76
2023/03/24 03:18:38;;;;;;;4.45;1.08;;;18.40;59.80;;;;;;5094796;28;20021;-76
2023/03/24 03:21:17;;;;;;;2.38;0.90;;;18.40;59.10;;;;;;5094681;28;20376;-76
2023/03/24 03:23:57;;;;;;;4.03;1.10;;;18.40;59.00;;;;;;5094431;28;20012;-76
2023/03/24 03:26:27;;;;;;;4.53;1.10;;;18.40;59.10;;;;;;5094378;28;20531;-76
2023/03/24 03:28:56;;;;;;;4.57;1.13;;;18.40;59.60;;;;;;5094196;28;20035;-76
2023/03/24 03:31:29;;;;;;;5.30;0.90;;;18.30;59.00;;;;;;5094142;28;20016;-76
2023/03/24 03:34:21;;;;;;;3.92;1.40;;;18.30;58.80;;;;;;5094127;28;20028;-76
2023/03/24 03:37:20;;;;;;;2.88;1.10;;;18.30;58.90;;;;;;5094166;28;20028;-76
2023/03/24 03:39:51;;;;;;;5.88;1.60;;;18.30;58.90;;;;;;5084103;28;20036;-76
2023/03/24 03:42:17;;;;;;;3.58;0.95;;;18.30;59.10;;;;;;5094109;28;20020;-76
2023/03/24 03:44:43;;;;;;;3.42;0.77;;;18.30;59.00;;;;;;5094013;28;20031;-77
2023/03/24 03:47:09;;;;;;;5.80;1.77;;;18.30;59.10;;;;;;5093923;28;20031;-76
2023/03/24 03:49:35;;;;;;;4.18;1.17;;;18.30;59.10;;;;;;5093889;28;20032;-76
2023/03/24 03:52:01;;;;;;;6.18;1.70;;;18.30;59.10;;;;;;5093819;28;20031;-77
2023/03/24 03:54:30;;;;;;;5.60;1.48;;;18.30;59.10;;;;;;5094015;28;20020;-76
2023/03/24 03:56:58;;;;;;;4.00;1.10;;;18.30;59.00;;;;;;5093976;28;20096;-76
2023/03/24 03:59:32;;;;;;;5.10;1.15;;;18.30;58.90;;;;;;5093739;28;20100;-76
2023/03/24 04:02:12;;;;;;;4.03;1.10;;;18.30;59.00;;;;;;5093854;28;20051;-76
2023/03/24 04:05:13;;;;;;;4.60;1.15;;;18.30;58.80;;;;;;5093668;28;20035;-77
2023/03/24 04:08:05;;;;;;;9.25;1.73;;;18.30;58.70;;;;;;5093497;28;20520;-76
2023/03/24 04:10:39;;;;;;;5.13;1.38;;;18.30;58.70;;;;;;5093740;28;20031;-76
2023/03/24 04:13:25;;;;;;;4.68;1.33;;;18.30;58.80;;;;;;5093729;28;20036;-76
2023/03/24 04:16:03;;;;;;;8.82;1.42;;;18.30;59.40;;;;;;5092727;28;20047;-76
2023/03/24 04:18:54;;;;;;;8.77;2.05;;;18.30;58.60;;;;;;5093421;28;20024;-76
2023/03/24 04:21:32;;;;;;;5.80;1.42;;;18.30;58.60;;;;;;5093241;28;20036;-76
2023/03/24 04:24:27;;;;;;;5.53;1.50;;;18.30;58.60;;;;;;5093179;28;20047;-76
2023/03/24 04:26:59;;;;;;;5.82;1.58;;;18.20;58.40;;;;;;5088116;28;20059;-76
2023/03/24 04:29:35;;;;;;;4.00;1.20;;;18.20;58.50;;;;;;5093068;28;20035;-76
2023/03/24 04:32:13;;;;;;;6.28;1.38;;;18.20;58.40;;;;;;5093095;28;20028;-76
2023/03/24 04:34:44;;;;;;;5.25;1.33;;;18.20;58.40;;;;;;5093035;28;20036;-76
2023/03/24 04:37:26;;;;;;;4.70;1.20;;;18.20;58.40;;;;;;5093123;28;20055;-76
2023/03/24 04:39:57;;;;;;;6.75;1.77;;;18.20;58.40;;;;;;5093345;28;20443;-76
2023/03/24 04:42:34;;;;;;;6.07;1.60;;;18.20;58.30;;;;;;5093154;28;20069;-75
2023/03/24 04:45:02;;;;;;;6.82;1.67;;;18.20;58.30;;;;;;5092943;28;20387;-78
2023/03/24 04:47:31;;;;;;;8.02;1.83;;;18.20;58.20;;;;;;5092811;28;20028;-76
2023/03/24 04:50:08;;;;;;;8.07;1.70;;;18.20;58.20;;;;;;5093070;28;20526;-76
2023/03/24 04:52:33;;;;;;;6.50;1.73;;;18.20;58.20;;;;;;5092766;28;20027;-77
2023/03/24 04:55:00;;;;;;;6.50;1.70;;;18.20;58.80;;;;;;5092733;28;20046;-76
2023/03/24 04:57:26;;;;;;;5.13;1.58;;;18.20;58.80;;;;;;5092612;28;20100;-76
2023/03/24 04:59:52;;;;;;;7.57;2.17;;;18.20;58.20;;;;;;5092643;28;20056;-76
2023/03/24 05:02:18;;;;;;;9.02;2.05;;;18.20;58.10;;;;;;5092401;28;20024;-77
2023/03/24 05:04:43;;;;;;;5.78;2.10;;;18.10;58.10;;;;;;5092554;28;20035;-76
2023/03/24 05:07:10;;;;;;;6.32;2.17;;;18.10;58.50;;;;;;5092549;28;20425;-78
2023/03/24 05:09:35;;;;;;;7.97;1.70;;;18.10;58.20;;;;;;5092508;28;20024;-76
2023/03/24 05:12:01;;;;;;;5.55;1.88;;;18.10;58.10;;;;;;5092460;28;20039;-78
2023/03/24 05:14:27;;;;;;;5.68;1.77;;;18.10;58.10;;;;;;5092394;28;20028;-78
2023/03/24 05:16:52;;;;;;;5.18;1.80;;;18.10;58.10;;;;;;5092444;28;20032;-78
2023/03/24 05:19:18;;;;;;;6.40;1.63;;;18.10;58.10;;;;;;5092324;28;20032;-78
2023/03/24 05:21:46;;;;;;;8.00;2.08;;;18.10;57.90;;;;;;5092366;28;20078;-78
2023/03/24 05:24:11;;;;;;;8.82;2.42;;;18.10;58.00;;;;;;5092124;28;20032;-77
2023/03/24 05:26:37;;;;;;;5.50;1.58;;;18.10;58.10;;;;;;5092023;28;20032;-77
2023/03/24 05:29:02;;;;;;;4.60;1.48;;;18.10;58.10;;;;;;5092311;28;20085;-77
2023/03/24 05:31:28;;;;;;;5.95;1.85;;;18.00;58.10;;;;;;5092251;28;20028;-77
2023/03/24 05:33:54;;;;;;;6.78;1.85;;;18.10;58.10;;;;;;5092286;28;20031;-77
2023/03/24 05:36:20;;;;;;;7.20;1.73;;;18.00;58.10;;;;;;5107753;28;20495;-78
2023/03/24 05:38:45;;;;;;;6.95;1.75;;;18.00;58.10;;;;;;5092123;28;20028;-77
2023/03/24 05:41:11;;;;;;;6.88;1.67;;;18.00;58.20;;;;;;5092091;28;20028;-77
2023/03/24 05:43:36;;;;;;;5.68;1.75;;;18.00;58.30;;;;;;5092047;28;20017;-77
2023/03/24 05:46:02;;;;;;;6.20;1.92;;;18.00;58.20;;;;;;5092153;28;20024;-77
2023/03/24 05:48:28;;;;;;;4.75;1.63;;;18.00;58.40;;;;;;5092106;28;20479;-77
2023/03/24 05:50:53;;;;;;;7.03;2.00;;;18.00;58.60;;;;;;5092152;28;20422;-77
2023/03/24 05:53:19;;;;;;;7.38;2.28;;;18.00;58.40;;;;;;5092008;28;20024;-77
2023/03/24 05:55:45;;;;;;;6.78;2.85;;;18.00;58.50;;;;;;5092211;28;20040;-77
2023/03/24 05:58:12;;;;;;;5.28;3.05;;;18.00;58.50;;;;;;5092277;28;20044;-77
2023/03/24 06:00:38;;;;;;;8.43;4.05;;;18.00;58.50;;;;;;5092239;28;20020;-77
2023/03/24 06:03:04;;;;;;;7.85;4.70;;;18.00;58.60;;;;;;5092156;28;20030;-77
2023/03/24 06:05:31;;;;;;;11.32;6.60;;;18.00;58.60;;;;;;5092216;28;20084;-77
2023/03/24 06:08:00;;;;;;;10.40;7.43;;;17.90;59.60;;;;;;5092191;28;20493;-77
2023/03/24 06:10:28;;;;;;;12.40;11.10;;;17.90;58.90;;;;;;5091920;28;20026;-77
2023/03/24 06:12:54;;;;;;;13.80;12.45;;;17.90;59.10;;;;;;5092077;28;20472;-77
2023/03/24 06:15:26;;;;;;;17.85;16.02;;;18.00;59.20;;;;;;5091699;28;20039;-77
2023/03/24 06:17:54;;;;;;;18.90;17.17;;;18.00;59.20;;;;;;5092113;28;20027;-77
2023/03/24 06:20:20;;;;;;;20.92;19.02;;;18.00;59.20;;;;;;5092047;28;20055;-77
2023/03/24 06:22:46;;;;;;;22.42;20.23;;;18.00;59.20;;;;;;5092014;28;20095;-78
2023/03/24 06:25:15;;;;;;;22.95;20.55;;;18.00;59.30;;;;;;5091584;28;20048;-77
2023/03/24 06:27:44;;;;;;;24.90;22.60;;;18.00;59.30;;;;;;5091771;28;20031;-76
2023/03/24 06:30:14;;;;;;;25.80;23.30;;;18.00;59.90;;;;;;5091576;28;20052;-73
2023/03/24 06:32:41;;;;;;;25.37;23.07;;;18.00;59.30;;;;;;5091801;28;20012;-72
2023/03/24 06:35:07;;;;;;;22.42;20.20;;;18.00;59.40;;;;;;5091536;28;20509;-73
2023/03/24 06:37:33;;;;;;;21.88;19.88;;;18.00;59.10;;;;;;5091784;28;20017;-72
2023/03/24 06:39:59;;;;;;;20.92;18.88;;;18.00;59.20;;;;;;5094590;28;20028;-73
2023/03/24 06:42:26;;;;;;;20.75;17.67;;;18.00;59.20;;;;;;5095145;28;20450;-72
2023/03/24 06:44:51;;;;;;;17.73;16.02;;;18.00;59.10;;;;;;5095210;28;20032;-73
2023/03/24 06:47:17;;;;;;;18.08;16.20;;;18.00;59.10;;;;;;5095078;28;20032;-73
2023/03/24 06:49:42;;;;;;;17.25;14.63;;;18.00;59.10;;;;;;5095054;28;20107;-73
2023/03/24 06:52:08;;;;;;;15.13;13.38;;;18.00;59.20;;;;;;5095005;28;20081;-73
2023/03/24 06:54:33;;;;;;;14.75;13.05;;;18.00;59.20;;;;;;5094739;28;20043;-72
2023/03/24 06:56:59;;;;;;;13.70;12.25;;;18.00;59.10;;;;;;5094706;28;20024;-73
2023/03/24 06:59:25;;;;;;;17.08;11.82;;;18.00;59.10;;;;;;5094546;28;20035;-73
2023/03/24 07:01:52;;;;;;;12.95;10.48;;;18.00;59.10;;;;;;5094513;28;20024;-73
2023/03/24 07:04:18;;;;;;;13.02;9.43;;;18.10;59.10;;;;;;5094494;28;20032;-73
2023/03/24 07:06:44;;;;;;;14.30;8.85;;;18.00;59.00;;;;;;5094358;28;20391;-73
2023/03/24 07:09:11;;;;;;;11.60;8.25;;;18.10;59.00;;;;;;5094411;28;20027;-73
2023/03/24 07:11:37;;;;;;;9.15;7.93;;;18.10;59.00;;;;;;5094360;28;20028;-73
2023/03/24 07:14:02;;;;;;;10.68;7.07;;;18.00;59.50;;;;;;5095713;28;20382;-73
2023/03/24 07:16:28;;;;;;;8.15;6.35;;;18.00;58.90;;;;;;5099566;28;20036;-73
2023/03/24 07:18:54;;;;;;;9.68;6.65;;;18.00;58.90;;;;;;5095470;28;20031;-73
2023/03/24 07:21:20;;;;;;;9.50;5.25;;;18.00;59.00;;;;;;5095845;28;20395;-73
2023/03/24 07:23:46;;;;;;;9.27;5.68;;;18.00;59.00;;;;;;5094439;28;20087;-74
2023/03/24 07:26:12;;;;;;;13.60;4.95;;;17.90;59.10;;;;;;5094188;28;20455;-73
2023/03/24 07:28:38;;;;;;;12.45;5.10;;;18.00;59.00;;;;;;5094262;28;20020;-73
2023/03/24 07:31:11;;;;;;;6.55;3.50;;;17.90;59.00;;;;;;5094303;28;20024;-74
2023/03/24 07:33:37;;;;;;;10.50;3.47;;;17.90;59.00;;;;;;5092635;28;20485;-73
2023/03/24 07:36:03;;;;;;;7.43;3.47;;;17.90;59.00;;;;;;5093847;28;20120;-75
2023/03/24 07:38:29;;;;;;;7.95;3.10;;;17.90;59.00;;;;;;5093713;28;20040;-73
2023/03/24 07:40:58;;;;;;;5.30;2.83;;;17.90;59.00;;;;;;5094003;28;20368;-73
2023/03/24 07:43:24;;;;;;;7.47;2.83;;;17.90;59.00;;;;;;5093696;28;20020;-73
2023/03/24 07:45:50;;;;;;;9.73;3.10;;;18.00;59.00;;;;;;5093935;28;20444;-73
2023/03/24 07:48:16;;;;;;;7.38;2.85;;;17.90;59.00;;;;;;5093616;28;20016;-72
2023/03/24 07:50:42;;;;;;;8.23;2.95;;;17.90;59.00;;;;;;5093338;28;20078;-73
2023/03/24 07:53:08;;;;;;;6.40;2.55;;;17.90;59.10;;;;;;5093883;28;20025;-72
2023/03/24 07:55:38;;;;;;;7.78;2.17;;;17.90;59.10;;;;;;5093493;28;20547;-73
2023/03/24 07:58:04;;;;;;;7.97;2.27;;;17.90;59.10;;;;;;5093615;28;20012;-72
2023/03/24 08:00:31;;;;;;;7.35;2.05;;;17.90;59.40;;;;;;5093936;28;20277;-72
2023/03/24 08:02:58;;;;;;;6.35;1.98;;;17.90;59.10;;;;;;5093586;28;20483;-73
2023/03/24 08:05:28;;;;;;;10.93;2.17;;;17.90;59.10;;;;;;5093789;28;20025;-73
2023/03/24 08:07:56;;;;;;;6.63;1.85;;;17.90;59.20;;;;;;5093801;28;20020;-73
2023/03/24 08:10:26;;;;;;;7.00;1.70;;;17.90;59.20;;;;;;5093736;28;20020;-72
2023/03/24 08:12:52;;;;;;;7.65;2.08;;;17.90;59.30;;;;;;5093727;28;20016;-72
2023/03/24 08:15:18;;;;;;;7.88;1.98;;;17.90;59.30;;;;;;5093515;28;20028;-73
2023/03/24 08:17:44;;;;;;;8.52;1.88;;;17.90;59.40;;;;;;5093608;28;20027;-72
2023/03/24 08:20:14;;;;;;;6.65;1.83;;;17.90;59.30;;;;;;5093205;28;20028;-73
2023/03/24 08:22:42;;;;;;;5.28;1.63;;;18.00;59.40;;;;;;5093436;28;20453;-73
2023/03/24 08:25:10;;;;;;;7.07;1.98;;;17.90;59.40;;;;;;5092914;28;20051;-73
2023/03/24 08:27:37;;;;;;;5.97;1.30;;;18.00;59.50;;;;;;5093365;28;20016;-73
2023/03/24 08:30:12;;;;;;;6.30;2.15;;;18.00;59.60;;;;;;5093271;28;20028;-72
2023/03/24 08:32:43;;;;;;;8.57;2.03;;;18.00;59.60;;;;;;5093370;28;20470;-73
2023/03/24 08:35:15;;;;;;;10.50;2.03;;;18.00;59.40;;;;;;5093173;28;20036;-73
2023/03/24 08:37:44;;;;;;;9.93;1.90;;;18.00;59.50;;;;;;5093378;28;20570;-84
2023/03/24 08:40:18;;;;;;;4.93;1.70;;;18.00;59.40;;;;;;5092960;28;20024;-85
2023/03/24 08:42:48;;;;;;;6.35;1.42;;;18.10;59.40;;;;;;5093359;28;20028;-84
2023/03/24 08:45:14;;;;;;;7.60;1.80;;;18.10;60.10;;;;;;5093272;28;20020;-84
2023/03/24 08:47:41;;;;;;;6.80;2.03;;;18.00;59.90;;;;;;5092817;28;20471;-84
2023/03/24 08:50:08;;;;;;;10.00;1.92;;;18.10;59.30;;;;;;5092845;28;20028;-84
2023/03/24 08:52:35;;;;;;;6.30;1.42;;;18.10;59.40;;;;;;5093226;28;20417;-85
2023/03/24 08:55:01;;;;;;;5.70;2.03;;;18.10;59.40;;;;;;5093517;28;20070;-84
2023/03/24 08:57:27;;;;;;;7.53;1.80;;;18.10;60.10;;;;;;5092901;28;20030;-85
2023/03/24 08:59:53;;;;;;;5.40;1.42;;;18.10;59.40;;;;;;5093507;28;20020;-86
2023/03/24 09:02:18;;;;;;;6.95;1.83;;;18.10;59.40;;;;;;5092625;28;20028;-80
2023/03/24 09:04:44;;;;;;;6.53;1.65;;;18.10;59.20;;;;;;5092666;28;20028;-79
2023/03/24 09:07:11;;;;;;;9.35;1.65;;;18.20;59.80;;;;;;5092645;28;20012;-80
2023/03/24 09:09:38;;;;;;;7.85;1.88;;;18.20;59.10;;;;;;5092758;28;20035;-82
2023/03/24 09:12:05;;;;;;;8.43;1.60;;;18.20;59.20;;;;;;5092503;28;20020;-79
2023/03/24 09:14:31;;;;;;;6.05;2.05;;;18.20;58.90;;;;;;5098971;28;20416;-88
2023/03/24 09:16:56;;;;;;;7.07;1.77;;;18.20;59.00;;;;;;5110097;28;20115;-78
2023/03/24 09:19:22;;;;;;;6.10;1.67;;;18.20;58.90;;;;;;5092332;28;20024;-81
2023/03/24 09:21:47;;;;;;;7.43;1.83;;;18.20;58.80;;;;;;5092380;28;20043;-81
2023/03/24 09:24:14;;;;;;;6.85;2.00;;;18.30;58.80;;;;;;5092341;28;20502;-88
2023/03/24 09:26:40;;;;;;;5.60;1.90;;;18.30;58.70;;;;;;5092414;28;20029;-80
2023/03/24 09:29:07;;;;;;;7.85;1.50;;;18.30;58.60;;;;;;5092498;28;20504;-82
2023/03/24 09:31:32;;;;;;;6.90;2.10;;;18.30;58.60;;;;;;5092343;28;20051;-81
2023/03/24 09:34:00;;;;;;;9.43;2.35;;;18.30;58.70;;;;;;5092385;28;20028;-81
2023/03/24 09:36:26;;;;;;;4.38;1.67;;;18.30;59.20;;;;;;5091756;28;20039;-81
2023/03/24 09:38:52;;;;;;;5.93;1.73;;;18.30;58.60;;;;;;5092468;28;20074;-80
2023/03/24 09:41:29;;;;;;;7.20;1.67;;;18.30;58.60;;;;;;5092288;28;20024;-80
2023/03/24 09:44:32;;;;;;;6.68;2.15;;;18.40;58.60;;;;;;5092415;28;20136;-81
2023/03/24 09:47:27;;;;;;;5.07;1.45;;;18.50;58.60;;;;;;5088230;28;20032;-80
2023/03/24 09:49:57;;;;;;;5.63;1.60;;;18.50;58.60;;;;;;5092218;28;20032;-75
2023/03/24 09:52:30;;;;;;;6.63;1.13;;;18.50;58.40;;;;;;5092361;28;20042;-83
2023/03/24 09:54:58;;;;;;;4.22;1.60;;;18.50;58.50;;;;;;5092293;28;20361;-79
2023/03/24 09:57:44;;;;;;;5.25;1.38;;;18.50;58.50;;;;;;5092204;28;20028;-80
2023/03/24 10:00:26;;;;;;;6.82;1.52;;;18.50;58.70;;;;;;5092338;28;20027;-80
2023/03/24 10:02:57;;;;;;;6.78;1.67;;;18.50;58.70;;;;;;5091938;28;20024;-80
2023/03/24 10:05:44;;;;;;;5.13;1.42;;;18.50;58.80;;;;;;5075064;28;20032;-80
2023/03/24 10:08:28;;;;;;;3.85;1.48;;;18.50;58.70;;;;;;5091151;28;20110;-80
2023/03/24 10:11:34;;;;;;;6.47;2.03;;;18.50;58.70;;;;;;5090693;28;20024;-81
2023/03/24 10:14:17;;;;;;;5.10;1.50;;;18.50;58.90;;;;;;5092649;28;20024;-81
2023/03/24 10:16:53;;;;;;;6.28;1.70;;;18.50;58.90;;;;;;5095974;28;20448;-81
2023/03/24 10:20:01;;;;;;;4.43;1.30;;;18.50;59.00;;;;;;5096095;28;20394;-81
2023/03/24 10:22:38;;;;;;;8.27;1.70;;;18.40;58.90;;;;;;5088975;28;20048;-81
2023/03/24 10:25:15;;;;;;;5.53;1.73;;;18.40;59.00;;;;;;5095583;28;20067;-81
2023/03/24 10:27:57;;;;;;;4.78;1.70;;;18.40;59.10;;;;;;5094597;28;20020;-80
2023/03/24 10:30:29;;;;;;;5.10;1.80;;;18.40;59.10;;;;;;5095736;28;20046;-80
2023/03/24 10:32:55;;;;;;;3.95;1.33;;;18.40;59.10;;;;;;5094526;28;20032;-81
2023/03/24 10:35:28;;;;;;;4.65;1.45;;;18.50;59.10;;;;;;5077332;28;20483;-81
2023/03/24 10:37:59;;;;;;;5.97;1.50;;;18.50;58.90;;;;;;5078203;28;20044;-81
2023/03/24 10:40:29;;;;;;;4.00;1.20;;;18.50;58.80;;;;;;5077913;28;20073;-81
2023/03/24 10:42:57;;;;;;;3.42;1.30;;;18.50;58.80;;;;;;5077671;28;20028;-81
2023/03/24 10:45:32;;;;;;;3.83;1.30;;;18.50;58.70;;;;;;5077711;28;20020;-73
2023/03/24 10:48:00;;;;;;;4.90;1.52;;;18.50;58.70;;;;;;5077905;28;20399;-81
2023/03/24 10:50:28;;;;;;;3.08;0.85;;;18.50;58.70;;;;;;5095044;28;20498;-82
2023/03/24 10:52:54;;;;;;;2.22;1.00;;;18.50;58.70;;;;;;5095127;28;20555;-90
2023/03/24 10:55:27;;;;;;;5.50;1.20;;;18.50;58.80;;;;;;5094890;28;20043;-81
2023/03/24 10:57:56;;;;;;;3.60;1.20;;;18.50;58.70;;;;;;5095276;28;20511;-87
2023/03/24 11:00:30;;;;;;;7.70;1.63;;;18.50;58.70;;;;;;5095214;28;20035;-80
2023/03/24 11:03:15;;;;;;;;;;;18.50;58.50;;;;;;5096258;28;20085;-81
2023/03/24 11:05:43;;;;;;;3.63;1.05;;;18.50;58.30;;;;;;5094983;28;19990;-78
2023/03/24 11:08:11;;;;;;;7.78;1.38;;;18.50;58.30;;;;;;5094775;28;20093;-88
2023/03/24 11:10:38;;;;;;;4.45;1.23;;;18.50;58.30;;;;;;5095334;28;20028;-90
2023/03/24 11:13:06;;;;;;;5.43;1.40;;;18.50;58.20;;;;;;5095060;28;20028;-84
2023/03/24 11:15:35;;;;;;;8.18;1.88;;;18.60;58.10;;;;;;5094828;28;20498;-87
2023/03/24 11:18:11;;;;;;;5.78;1.92;;;18.60;58.20;;;;;;5095034;28;20034;-88
2023/03/24 11:20:45;;;;;;;5.57;1.27;;;18.60;58.00;;;;;;5095544;28;20028;-86
2023/03/24 11:23:25;;;;;;;5.22;1.20;;;18.60;58.00;;;;;;5095757;28;20019;-90
2023/03/24 11:26:12;;;;;;;7.60;1.45;;;18.60;57.90;;;;;;5094451;28;20052;-86
2023/03/24 11:28:46;;;;;;;6.28;1.35;;;18.60;58.00;;;;;;5094984;28;20368;-83
2023/03/24 11:31:23;;;;;;;5.93;1.55;;;18.60;57.90;;;;;;5095219;28;20028;-87
2023/03/24 11:33:59;;;;;;;4.00;1.63;;;18.50;57.90;;;;;;5094498;28;20024;-84
2023/03/24 11:36:33;;;;;;;4.53;1.45;;;18.60;58.00;;;;;;5094426;28;20111;-84
2023/03/24 11:39:09;;;;;;;4.15;1.25;;;18.60;57.80;;;;;;5094323;28;20417;-81
2023/03/24 11:41:38;;;;;;;5.97;1.52;;;18.80;57.50;;;;;;5095101;28;20027;-88
2023/03/24 11:44:17;;;;;;;4.18;1.15;;;19.00;57.10;;;;;;5094546;28;20028;-82
2023/03/24 11:46:46;;;;;;;5.65;1.50;;;19.10;56.90;;;;;;5094469;28;20027;-84
2023/03/24 11:49:18;;;;;;;5.80;1.40;;;19.10;56.80;;;;;;5093938;28;20491;-83
2023/03/24 11:51:49;;;;;;;9.50;1.73;;;19.20;56.60;;;;;;5094526;28;20012;-86
2023/03/24 11:54:17;;;;;;;5.00;1.20;;;19.20;56.70;;;;;;5094296;28;20379;-87
2023/03/24 11:56:59;;;;;;;3.15;1.08;;;19.30;56.50;;;;;;5094024;28;20482;-85
2023/03/24 11:59:44;;;;;;;5.85;1.25;;;19.40;57.00;;;;;;5094139;28;20363;-82
2023/03/24 12:02:18;;;;;;;4.38;1.25;;;19.30;56.50;;;;;;5092444;28;20035;-82
2023/03/24 12:05:05;;;;;;;3.33;0.98;;;19.30;56.70;;;;;;5094204;28;20032;-88
2023/03/24 12:07:59;;;;;;;3.97;1.58;;;19.20;56.90;;;;;;5093884;28;20028;-83
2023/03/24 12:10:47;;;;;;;5.63;1.20;;;19.20;57.20;;;;;;5093901;28;20156;-84
2023/03/24 12:13:31;;;;;;;4.38;1.20;;;19.10;57.40;;;;;;5093791;28;20024;-86
2023/03/24 12:16:15;;;;;;;3.20;1.20;;;19.10;57.40;;;;;;5093508;28;20433;-87
2023/03/24 12:18:58;;;;;;;6.82;1.60;;;19.20;57.30;;;;;;5093621;28;20382;-81
2023/03/24 12:21:41;;;;;;;7.10;1.38;;;19.30;57.20;;;;;;5093453;28;20193;-84
2023/03/24 12:24:26;;;;;;;4.75;1.08;;;19.40;56.80;;;;;;5093211;28;20040;-84
2023/03/24 12:26:58;;;;;;;3.30;0.80;;;19.50;56.50;;;;;;5093987;28;20107;-85
2023/03/24 12:29:35;;;;;;;3.10;1.10;;;19.50;56.40;;;;;;5093967;28;20031;-83
2023/03/24 12:32:22;;;;;;;5.00;1.30;;;19.50;56.40;;;;;;5093372;28;20036;-83
2023/03/24 12:35:18;;;;;;;7.95;1.38;;;19.40;56.60;;;;;;5093547;28;20053;-86
2023/03/24 12:38:17;;;;;;;7.68;1.10;;;19.40;56.80;;;;;;5093078;28;20106;-83
2023/03/24 12:41:02;;;;;;;2.75;1.13;;;19.30;57.00;;;;;;5093619;28;20031;-86
2023/03/24 12:43:43;;;;;;;2.80;1.00;;;19.20;57.10;;;;;;5093543;28;20028;-89
2023/03/24 12:46:27;;;;;;;3.22;0.90;;;19.20;57.20;;;;;;5093957;28;20036;-89
2023/03/24 12:49:07;;;;;;;3.85;1.10;;;19.10;57.30;;;;;;5093700;28;20154;-89
2023/03/24 12:51:54;;;;;;;4.93;1.27;;;19.10;57.50;;;;;;5093717;28;20039;-90
2023/03/24 12:54:40;;;;;;;5.45;1.33;;;19.10;57.50;;;;;;5094804;28;20448;-89
2023/03/24 12:57:11;;;;;;;4.25;1.27;;;19.00;57.50;;;;;;5093117;28;20044;-88
2023/03/24 12:59:43;;;;;;;2.38;0.80;;;19.00;57.60;;;;;;5093455;28;20091;-88
2023/03/24 13:02:25;;;;;;;6.32;1.10;;;19.00;57.60;;;;;;5093856;28;20024;-88
2023/03/24 13:04:56;;;;;;;3.58;1.30;;;19.20;57.30;;;;;;5093628;28;20494;-87
2023/03/24 13:07:27;;;;;;;2.05;0.90;;;19.30;56.90;;;;;;5093093;28;20103;-87
2023/03/24 13:10:19;;;;;;;2.45;0.90;;;19.50;56.50;;;;;;5093613;28;20027;-88
2023/03/24 13:13:01;;;;;;;3.22;0.98;;;19.50;56.30;;;;;;5093717;28;20024;-88